sensor_id;sensor_type;location;lat;lon;timestamp;temperature;humidity
78184;DHT22;67442;44.570;18.610;2024-01-30T00:00:34;-4.00;99.90
78184;DHT22;67442;44.570;18.610;2024-01-30T00:03:05;-3.90;99.90
78184;DHT22;67442;44.570;18.610;2024-01-30T00:05:36;-4.00;99.90
78184;DHT22;67442;44.570;18.610;2024-01-30T00:08:05;-4.20;99.90
78184;DHT22;67442;44.570;18.610;2024-01-30T00:10:38;-4.30;99.90
78184;DHT22;67442;44.570;18.610;2024-01-30T00:13:09;-4.40;99.90
78184;DHT22;67442;44.570;18.610;2024-01-30T00:15:41;-4.20;99.90
78184;DHT22;67442;44.570;18.610;2024-01-30T00:18:08;-4.20;99.90
78184;DHT22;67442;44.570;18.610;2024-01-30T00:20:35;-4.20;99.90
78184;DHT22;67442;44.570;18.610;2024-01-30T00:23:03;-4.10;99.90
78184;DHT22;67442;44.570;18.610;2024-01-30T00:25:31;-3.80;99.90
78184;DHT22;67442;44.570;18.610;2024-01-30T00:28:00;-3.70;99.90
78184;DHT22;67442;44.570;18.610;2024-01-30T00:30:31;-3.60;99.90
78184;DHT22;67442;44.570;18.610;2024-01-30T00:33:02;-3.50;99.90
78184;DHT22;67442;44.570;18.610;2024-01-30T00:35:30;-3.70;99.90
78184;DHT22;67442;44.570;18.610;2024-01-30T00:37:58;-3.60;99.90
78184;DHT22;67442;44.570;18.610;2024-01-30T00:40:25;-3.50;99.90
78184;DHT22;67442;44.570;18.610;2024-01-30T00:42:57;-3.70;99.90
78184;DHT22;67442;44.570;18.610;2024-01-30T00:45:28;-3.80;99.90
78184;DHT22;67442;44.570;18.610;2024-01-30T00:47:59;-4.10;99.90
78184;DHT22;67442;44.570;18.610;2024-01-30T00:50:27;-4.40;99.90
78184;DHT22;67442;44.570;18.610;2024-01-30T00:52:54;-4.40;99.90
78184;DHT22;67442;44.570;18.610;2024-01-30T00:55:26;-4.40;99.90
78184;DHT22;67442;44.570;18.610;2024-01-30T00:57:53;-4.30;99.90
78184;DHT22;67442;44.570;18.610;2024-01-30T01:00:20;-4.30;99.90
78184;DHT22;67442;44.570;18.610;2024-01-30T01:02:49;-4.10;99.90
78184;DHT22;67442;44.570;18.610;2024-01-30T01:05:21;-3.90;99.90
78184;DHT22;67442;44.570;18.610;2024-01-30T01:07:52;-4.00;99.90
78184;DHT22;67442;44.570;18.610;2024-01-30T01:10:23;-4.30;99.90
78184;DHT22;67442;44.570;18.610;2024-01-30T01:12:54;-4.40;99.90
78184;DHT22;67442;44.570;18.610;2024-01-30T01:15:22;-4.50;99.90
78184;DHT22;67442;44.570;18.610;2024-01-30T01:17:50;-4.50;99.90
78184;DHT22;67442;44.570;18.610;2024-01-30T01:20:17;-4.40;99.90
78184;DHT22;67442;44.570;18.610;2024-01-30T01:22:45;-4.50;99.90
78184;DHT22;67442;44.570;18.610;2024-01-30T01:25:12;-4.70;99.90
78184;DHT22;67442;44.570;18.610;2024-01-30T01:27:40;-4.70;99.90
78184;DHT22;67442;44.570;18.610;2024-01-30T01:30:11;-4.70;99.90
78184;DHT22;67442;44.570;18.610;2024-01-30T01:32:45;-4.70;99.90
78184;DHT22;67442;44.570;18.610;2024-01-30T01:35:17;-4.70;99.90
78184;DHT22;67442;44.570;18.610;2024-01-30T01:37:45;-4.70;99.90
78184;DHT22;67442;44.570;18.610;2024-01-30T01:40:12;-4.60;99.90
78184;DHT22;67442;44.570;18.610;2024-01-30T01:42:39;-4.40;99.90
78184;DHT22;67442;44.570;18.610;2024-01-30T01:45:07;-4.50;99.90
78184;DHT22;67442;44.570;18.610;2024-01-30T01:47:35;-4.40;99.90
78184;DHT22;67442;44.570;18.610;2024-01-30T01:50:03;-4.50;99.90
78184;DHT22;67442;44.570;18.610;2024-01-30T01:52:30;-4.50;99.90
78184;DHT22;67442;44.570;18.610;2024-01-30T01:55:02;-4.60;99.90
78184;DHT22;67442;44.570;18.610;2024-01-30T01:57:30;-4.70;99.90
78184;DHT22;67442;44.570;18.610;2024-01-30T02:00:02;-4.90;99.90
78184;DHT22;67442;44.570;18.610;2024-01-30T02:02:31;-4.80;99.90
78184;DHT22;67442;44.570;18.610;2024-01-30T02:05:00;-4.80;99.90
78184;DHT22;67442;44.570;18.610;2024-01-30T02:07:30;-4.60;99.90
78184;DHT22;67442;44.570;18.610;2024-01-30T02:09:57;-4.40;99.90
78184;DHT22;67442;44.570;18.610;2024-01-30T02:12:25;-4.20;99.90
78184;DHT22;67442;44.570;18.610;2024-01-30T02:14:53;-4.20;99.90
78184;DHT22;67442;44.570;18.610;2024-01-30T02:17:21;-4.40;99.90
78184;DHT22;67442;44.570;18.610;2024-01-30T02:19:49;-4.50;99.90
78184;DHT22;67442;44.570;18.610;2024-01-30T02:22:16;-4.60;99.90
78184;DHT22;67442;44.570;18.610;2024-01-30T02:24:44;-4.70;99.90
78184;DHT22;67442;44.570;18.610;2024-01-30T02:27:12;-4.90;99.90
78184;DHT22;67442;44.570;18.610;2024-01-30T02:29:40;-4.90;99.90
78184;DHT22;67442;44.570;18.610;2024-01-30T02:32:07;-4.90;99.90
78184;DHT22;67442;44.570;18.610;2024-01-30T02:34:34;-4.90;99.90
78184;DHT22;67442;44.570;18.610;2024-01-30T02:37:02;-4.80;99.90
78184;DHT22;67442;44.570;18.610;2024-01-30T02:39:29;-5.00;99.90
78184;DHT22;67442;44.570;18.610;2024-01-30T02:41:57;-5.10;99.90
78184;DHT22;67442;44.570;18.610;2024-01-30T02:44:24;-5.30;99.90
78184;DHT22;67442;44.570;18.610;2024-01-30T02:46:52;-5.40;99.90
78184;DHT22;67442;44.570;18.610;2024-01-30T02:49:24;-5.30;99.90
78184;DHT22;67442;44.570;18.610;2024-01-30T02:51:51;-5.20;99.90
78184;DHT22;67442;44.570;18.610;2024-01-30T02:54:18;-5.30;99.90
78184;DHT22;67442;44.570;18.610;2024-01-30T02:56:49;-5.30;99.90
78184;DHT22;67442;44.570;18.610;2024-01-30T02:59:21;-5.30;99.90
78184;DHT22;67442;44.570;18.610;2024-01-30T03:01:48;-5.20;99.90
78184;DHT22;67442;44.570;18.610;2024-01-30T03:04:16;-5.10;99.90
78184;DHT22;67442;44.570;18.610;2024-01-30T03:06:47;-5.00;99.90
78184;DHT22;67442;44.570;18.610;2024-01-30T03:09:18;-5.20;99.90
78184;DHT22;67442;44.570;18.610;2024-01-30T03:11:46;-5.30;99.90
78184;DHT22;67442;44.570;18.610;2024-01-30T03:14:14;-5.40;99.90
78184;DHT22;67442;44.570;18.610;2024-01-30T03:16:45;-5.50;99.90
78184;DHT22;67442;44.570;18.610;2024-01-30T03:19:13;-5.40;99.90
78184;DHT22;67442;44.570;18.610;2024-01-30T03:21:44;-5.40;99.90
78184;DHT22;67442;44.570;18.610;2024-01-30T03:24:15;-5.40;99.90
78184;DHT22;67442;44.570;18.610;2024-01-30T03:26:43;-5.50;99.90
78184;DHT22;67442;44.570;18.610;2024-01-30T03:29:11;-5.50;99.90
78184;DHT22;67442;44.570;18.610;2024-01-30T03:31:38;-5.40;99.90
78184;DHT22;67442;44.570;18.610;2024-01-30T03:34:06;-5.30;99.90
78184;DHT22;67442;44.570;18.610;2024-01-30T03:36:34;-5.30;99.90
78184;DHT22;67442;44.570;18.610;2024-01-30T03:39:05;-5.30;99.90
78184;DHT22;67442;44.570;18.610;2024-01-30T03:41:33;-5.10;99.90
78184;DHT22;67442;44.570;18.610;2024-01-30T03:44:03;-5.00;99.90
78184;DHT22;67442;44.570;18.610;2024-01-30T03:46:31;-5.10;99.90
78184;DHT22;67442;44.570;18.610;2024-01-30T03:48:58;-5.20;99.90
78184;DHT22;67442;44.570;18.610;2024-01-30T03:51:26;-5.00;99.90
78184;DHT22;67442;44.570;18.610;2024-01-30T03:53:54;-4.80;99.90
78184;DHT22;67442;44.570;18.610;2024-01-30T03:56:21;-4.70;99.90
78184;DHT22;67442;44.570;18.610;2024-01-30T03:58:49;-4.60;99.90
78184;DHT22;67442;44.570;18.610;2024-01-30T04:01:20;-4.70;99.90
78184;DHT22;67442;44.570;18.610;2024-01-30T04:03:47;-5.10;99.90
78184;DHT22;67442;44.570;18.610;2024-01-30T04:06:19;-5.40;99.90
78184;DHT22;67442;44.570;18.610;2024-01-30T04:08:46;-5.40;99.90
78184;DHT22;67442;44.570;18.610;2024-01-30T04:11:19;-5.20;99.90
78184;DHT22;67442;44.570;18.610;2024-01-30T04:13:47;-5.00;99.90
78184;DHT22;67442;44.570;18.610;2024-01-30T04:16:21;-5.20;99.90
78184;DHT22;67442;44.570;18.610;2024-01-30T04:18:52;-5.50;99.90
78184;DHT22;67442;44.570;18.610;2024-01-30T04:21:20;-5.50;99.90
78184;DHT22;67442;44.570;18.610;2024-01-30T04:23:47;-5.60;99.90
78184;DHT22;67442;44.570;18.610;2024-01-30T04:26:15;-5.50;99.90
78184;DHT22;67442;44.570;18.610;2024-01-30T04:28:44;-5.60;99.90
78184;DHT22;67442;44.570;18.610;2024-01-30T04:31:15;-5.70;99.90
78184;DHT22;67442;44.570;18.610;2024-01-30T04:33:43;-5.40;99.90
78184;DHT22;67442;44.570;18.610;2024-01-30T04:36:14;-5.20;99.90
78184;DHT22;67442;44.570;18.610;2024-01-30T04:38:42;-5.40;99.90
78184;DHT22;67442;44.570;18.610;2024-01-30T04:41:10;-5.70;99.90
78184;DHT22;67442;44.570;18.610;2024-01-30T04:43:41;-5.60;99.90
78184;DHT22;67442;44.570;18.610;2024-01-30T04:46:12;-5.30;99.90
78184;DHT22;67442;44.570;18.610;2024-01-30T04:48:44;-5.10;99.90
78184;DHT22;67442;44.570;18.610;2024-01-30T04:51:11;-5.00;99.90
78184;DHT22;67442;44.570;18.610;2024-01-30T04:53:39;-5.10;99.90
78184;DHT22;67442;44.570;18.610;2024-01-30T04:56:10;-5.30;99.90
78184;DHT22;67442;44.570;18.610;2024-01-30T04:58:36;-5.40;99.90
78184;DHT22;67442;44.570;18.610;2024-01-30T05:01:04;-5.80;99.90
78184;DHT22;67442;44.570;18.610;2024-01-30T05:03:35;-5.90;99.90
78184;DHT22;67442;44.570;18.610;2024-01-30T05:06:03;-6.10;99.90
78184;DHT22;67442;44.570;18.610;2024-01-30T05:08:31;-6.20;99.90
78184;DHT22;67442;44.570;18.610;2024-01-30T05:11:00;-6.00;99.90
78184;DHT22;67442;44.570;18.610;2024-01-30T05:13:33;-5.80;99.90
78184;DHT22;67442;44.570;18.610;2024-01-30T05:16:02;-5.80;99.90
78184;DHT22;67442;44.570;18.610;2024-01-30T05:18:30;-5.80;99.90
78184;DHT22;67442;44.570;18.610;2024-01-30T05:20:58;-5.70;99.90
78184;DHT22;67442;44.570;18.610;2024-01-30T05:23:26;-5.70;99.90
78184;DHT22;67442;44.570;18.610;2024-01-30T05:25:57;-5.60;99.90
78184;DHT22;67442;44.570;18.610;2024-01-30T05:28:32;-5.50;99.90
78184;DHT22;67442;44.570;18.610;2024-01-30T05:31:03;-5.30;99.90
78184;DHT22;67442;44.570;18.610;2024-01-30T05:33:31;-5.50;99.90
78184;DHT22;67442;44.570;18.610;2024-01-30T05:35:59;-5.70;99.90
78184;DHT22;67442;44.570;18.610;2024-01-30T05:38:26;-5.70;99.90
78184;DHT22;67442;44.570;18.610;2024-01-30T05:40:54;-5.60;99.90
78184;DHT22;67442;44.570;18.610;2024-01-30T05:43:22;-5.80;99.90
78184;DHT22;67442;44.570;18.610;2024-01-30T05:45:52;-5.90;99.90
78184;DHT22;67442;44.570;18.610;2024-01-30T05:48:19;-6.00;99.90
78184;DHT22;67442;44.570;18.610;2024-01-30T05:50:47;-6.00;99.90
78184;DHT22;67442;44.570;18.610;2024-01-30T05:53:15;-5.90;99.90
78184;DHT22;67442;44.570;18.610;2024-01-30T05:55:46;-5.60;99.90
78184;DHT22;67442;44.570;18.610;2024-01-30T05:58:13;-5.80;99.90
78184;DHT22;67442;44.570;18.610;2024-01-30T06:00:45;-5.90;99.90
78184;DHT22;67442;44.570;18.610;2024-01-30T06:03:13;-5.90;99.90
78184;DHT22;67442;44.570;18.610;2024-01-30T06:05:40;-5.90;99.90
78184;DHT22;67442;44.570;18.610;2024-01-30T06:08:08;-6.10;99.90
78184;DHT22;67442;44.570;18.610;2024-01-30T06:10:39;-6.10;99.90
78184;DHT22;67442;44.570;18.610;2024-01-30T06:13:07;-6.20;99.90
78184;DHT22;67442;44.570;18.610;2024-01-30T06:15:34;-6.20;99.90
78184;DHT22;67442;44.570;18.610;2024-01-30T06:18:02;-6.20;99.90
78184;DHT22;67442;44.570;18.610;2024-01-30T06:20:30;-6.20;99.90
78184;DHT22;67442;44.570;18.610;2024-01-30T06:23:01;-6.30;99.90
78184;DHT22;67442;44.570;18.610;2024-01-30T06:25:28;-6.20;99.90
78184;DHT22;67442;44.570;18.610;2024-01-30T06:27:56;-6.20;99.90
78184;DHT22;67442;44.570;18.610;2024-01-30T06:30:27;-6.10;99.90
78184;DHT22;67442;44.570;18.610;2024-01-30T06:32:55;-6.20;99.90
78184;DHT22;67442;44.570;18.610;2024-01-30T06:35:23;-6.10;99.90
78184;DHT22;67442;44.570;18.610;2024-01-30T06:37:50;-5.70;99.90
78184;DHT22;67442;44.570;18.610;2024-01-30T06:40:22;-5.50;99.90
78184;DHT22;67442;44.570;18.610;2024-01-30T06:42:53;-5.30;99.90
78184;DHT22;67442;44.570;18.610;2024-01-30T06:45:21;-5.40;99.90
78184;DHT22;67442;44.570;18.610;2024-01-30T06:47:52;-5.40;99.90
78184;DHT22;67442;44.570;18.610;2024-01-30T06:50:20;-5.40;99.90
78184;DHT22;67442;44.570;18.610;2024-01-30T06:52:47;-5.50;99.90
78184;DHT22;67442;44.570;18.610;2024-01-30T06:55:19;-5.60;99.90
78184;DHT22;67442;44.570;18.610;2024-01-30T06:57:50;-5.50;99.90
78184;DHT22;67442;44.570;18.610;2024-01-30T07:00:18;-5.30;99.90
78184;DHT22;67442;44.570;18.610;2024-01-30T07:02:50;-5.20;99.90
78184;DHT22;67442;44.570;18.610;2024-01-30T07:05:22;-5.10;99.90
78184;DHT22;67442;44.570;18.610;2024-01-30T07:07:49;-4.80;99.90
78184;DHT22;67442;44.570;18.610;2024-01-30T07:10:20;-4.70;99.90
78184;DHT22;67442;44.570;18.610;2024-01-30T07:12:47;-4.70;99.90
78184;DHT22;67442;44.570;18.610;2024-01-30T07:15:19;-4.70;99.90
78184;DHT22;67442;44.570;18.610;2024-01-30T07:17:47;-4.50;99.90
78184;DHT22;67442;44.570;18.610;2024-01-30T07:20:18;-4.00;99.90
78184;DHT22;67442;44.570;18.610;2024-01-30T07:22:46;-3.70;99.90
78184;DHT22;67442;44.570;18.610;2024-01-30T07:25:14;-3.50;99.90
78184;DHT22;67442;44.570;18.610;2024-01-30T07:27:42;-3.50;99.90
78184;DHT22;67442;44.570;18.610;2024-01-30T07:30:10;-3.40;99.90
78184;DHT22;67442;44.570;18.610;2024-01-30T07:32:37;-3.50;99.90
78184;DHT22;67442;44.570;18.610;2024-01-30T07:35:08;-3.50;99.90
78184;DHT22;67442;44.570;18.610;2024-01-30T07:37:36;-3.40;99.90
78184;DHT22;67442;44.570;18.610;2024-01-30T07:40:07;-3.30;99.90
78184;DHT22;67442;44.570;18.610;2024-01-30T07:42:35;-3.20;99.90
78184;DHT22;67442;44.570;18.610;2024-01-30T07:45:02;-3.10;99.90
78184;DHT22;67442;44.570;18.610;2024-01-30T07:47:30;-3.10;99.90
78184;DHT22;67442;44.570;18.610;2024-01-30T07:49:59;-3.00;99.90
78184;DHT22;67442;44.570;18.610;2024-01-30T07:52:27;-2.80;99.90
78184;DHT22;67442;44.570;18.610;2024-01-30T07:54:55;-2.70;99.90
78184;DHT22;67442;44.570;18.610;2024-01-30T07:57:23;-2.50;99.90
78184;DHT22;67442;44.570;18.610;2024-01-30T07:59:51;-2.30;99.90
78184;DHT22;67442;44.570;18.610;2024-01-30T08:02:19;-2.00;99.90
78184;DHT22;67442;44.570;18.610;2024-01-30T08:04:49;-1.80;99.90
78184;DHT22;67442;44.570;18.610;2024-01-30T08:07:17;-1.50;99.90
78184;DHT22;67442;44.570;18.610;2024-01-30T08:09:44;-1.30;99.90
78184;DHT22;67442;44.570;18.610;2024-01-30T08:12:11;-1.00;99.90
78184;DHT22;67442;44.570;18.610;2024-01-30T08:14:39;-0.70;99.90
78184;DHT22;67442;44.570;18.610;2024-01-30T08:17:07;-0.70;99.90
78184;DHT22;67442;44.570;18.610;2024-01-30T08:19:37;-0.50;99.90
78184;DHT22;67442;44.570;18.610;2024-01-30T08:22:08;-0.10;99.90
78184;DHT22;67442;44.570;18.610;2024-01-30T08:24:40;-0.30;99.90
78184;DHT22;67442;44.570;18.610;2024-01-30T08:27:07;-0.20;99.90
78184;DHT22;67442;44.570;18.610;2024-01-30T08:29:54;0.10;99.90
78184;DHT22;67442;44.570;18.610;2024-01-30T08:32:21;0.20;99.90
78184;DHT22;67442;44.570;18.610;2024-01-30T08:34:53;0.50;99.90
78184;DHT22;67442;44.570;18.610;2024-01-30T08:37:20;0.70;99.90
78184;DHT22;67442;44.570;18.610;2024-01-30T08:39:51;0.70;99.90
78184;DHT22;67442;44.570;18.610;2024-01-30T08:42:23;0.70;99.90
78184;DHT22;67442;44.570;18.610;2024-01-30T08:44:51;0.90;99.90
78184;DHT22;67442;44.570;18.610;2024-01-30T08:47:23;1.00;99.90
78184;DHT22;67442;44.570;18.610;2024-01-30T08:49:52;1.10;99.90
78184;DHT22;67442;44.570;18.610;2024-01-30T08:52:19;1.10;99.90
78184;DHT22;67442;44.570;18.610;2024-01-30T08:54:49;1.30;99.90
78184;DHT22;67442;44.570;18.610;2024-01-30T08:57:16;1.50;99.90
78184;DHT22;67442;44.570;18.610;2024-01-30T08:59:44;1.60;99.90
78184;DHT22;67442;44.570;18.610;2024-01-30T09:02:15;1.90;99.90
78184;DHT22;67442;44.570;18.610;2024-01-30T09:04:47;2.20;99.90
78184;DHT22;67442;44.570;18.610;2024-01-30T09:07:27;2.30;99.90
78184;DHT22;67442;44.570;18.610;2024-01-30T09:09:58;2.60;99.90
78184;DHT22;67442;44.570;18.610;2024-01-30T09:12:26;2.80;99.90
78184;DHT22;67442;44.570;18.610;2024-01-30T09:14:54;3.00;99.90
78184;DHT22;67442;44.570;18.610;2024-01-30T09:17:28;3.10;99.90
78184;DHT22;67442;44.570;18.610;2024-01-30T09:19:57;3.10;99.90
78184;DHT22;67442;44.570;18.610;2024-01-30T09:22:28;3.20;99.90
78184;DHT22;67442;44.570;18.610;2024-01-30T09:25:00;3.30;99.90
78184;DHT22;67442;44.570;18.610;2024-01-30T09:27:30;3.50;99.90
78184;DHT22;67442;44.570;18.610;2024-01-30T09:29:57;3.40;99.90
78184;DHT22;67442;44.570;18.610;2024-01-30T09:32:28;3.50;99.90
78184;DHT22;67442;44.570;18.610;2024-01-30T09:34:58;3.50;99.90
78184;DHT22;67442;44.570;18.610;2024-01-30T09:37:30;3.50;99.90
78184;DHT22;67442;44.570;18.610;2024-01-30T09:40:01;3.70;99.90
78184;DHT22;67442;44.570;18.610;2024-01-30T09:42:36;3.80;99.90
78184;DHT22;67442;44.570;18.610;2024-01-30T09:45:04;4.10;99.90
78184;DHT22;67442;44.570;18.610;2024-01-30T09:47:53;4.10;99.90
78184;DHT22;67442;44.570;18.610;2024-01-30T09:50:20;4.30;99.90
78184;DHT22;67442;44.570;18.610;2024-01-30T09:52:51;4.30;99.90
78184;DHT22;67442;44.570;18.610;2024-01-30T09:55:20;4.40;99.90
78184;DHT22;67442;44.570;18.610;2024-01-30T09:57:49;4.50;99.90
78184;DHT22;67442;44.570;18.610;2024-01-30T10:00:17;4.60;99.90
78184;DHT22;67442;44.570;18.610;2024-01-30T10:02:49;4.70;99.90
78184;DHT22;67442;44.570;18.610;2024-01-30T10:05:26;4.90;99.90
78184;DHT22;67442;44.570;18.610;2024-01-30T10:07:56;5.10;99.90
78184;DHT22;67442;44.570;18.610;2024-01-30T10:10:23;5.10;99.90
78184;DHT22;67442;44.570;18.610;2024-01-30T10:12:53;5.20;99.90
78184;DHT22;67442;44.570;18.610;2024-01-30T10:15:21;5.30;99.90
78184;DHT22;67442;44.570;18.610;2024-01-30T10:17:49;5.40;99.90
78184;DHT22;67442;44.570;18.610;2024-01-30T10:20:16;5.50;99.90
78184;DHT22;67442;44.570;18.610;2024-01-30T10:22:45;5.60;99.90
78184;DHT22;67442;44.570;18.610;2024-01-30T10:25:21;5.70;98.80
78184;DHT22;67442;44.570;18.610;2024-01-30T10:27:53;5.80;98.50
78184;DHT22;67442;44.570;18.610;2024-01-30T10:30:40;5.80;98.80
78184;DHT22;67442;44.570;18.610;2024-01-30T10:33:11;5.80;97.30
78184;DHT22;67442;44.570;18.610;2024-01-30T10:35:43;5.90;97.60
78184;DHT22;67442;44.570;18.610;2024-01-30T10:38:12;6.00;97.20
78184;DHT22;67442;44.570;18.610;2024-01-30T10:40:43;6.10;96.60
78184;DHT22;67442;44.570;18.610;2024-01-30T10:43:14;6.20;96.00
78184;DHT22;67442;44.570;18.610;2024-01-30T10:45:50;6.40;95.60
78184;DHT22;67442;44.570;18.610;2024-01-30T10:48:27;6.50;93.40
78184;DHT22;67442;44.570;18.610;2024-01-30T10:51:03;6.60;94.50
78184;DHT22;67442;44.570;18.610;2024-01-30T10:53:32;6.70;92.20
78184;DHT22;67442;44.570;18.610;2024-01-30T10:56:04;6.70;91.90
78184;DHT22;67442;44.570;18.610;2024-01-30T10:58:33;6.90;92.80
78184;DHT22;67442;44.570;18.610;2024-01-30T11:01:09;6.90;93.30
78184;DHT22;67442;44.570;18.610;2024-01-30T11:03:36;7.10;91.90
78184;DHT22;67442;44.570;18.610;2024-01-30T11:06:04;7.10;92.10
78184;DHT22;67442;44.570;18.610;2024-01-30T11:08:35;7.20;90.10
78184;DHT22;67442;44.570;18.610;2024-01-30T11:11:09;7.30;88.00
78184;DHT22;67442;44.570;18.610;2024-01-30T11:13:40;7.40;90.00
78184;DHT22;67442;44.570;18.610;2024-01-30T11:16:12;7.30;91.60
78184;DHT22;67442;44.570;18.610;2024-01-30T11:18:39;7.50;87.80
78184;DHT22;67442;44.570;18.610;2024-01-30T11:21:07;7.50;82.60
78184;DHT22;67442;44.570;18.610;2024-01-30T11:23:40;7.40;83.40
78184;DHT22;67442;44.570;18.610;2024-01-30T11:26:12;7.40;86.70
78184;DHT22;67442;44.570;18.610;2024-01-30T11:28:40;7.50;87.50
78184;DHT22;67442;44.570;18.610;2024-01-30T11:31:07;7.60;84.50
78184;DHT22;67442;44.570;18.610;2024-01-30T11:33:41;7.70;84.40
78184;DHT22;67442;44.570;18.610;2024-01-30T11:36:09;7.80;84.00
78184;DHT22;67442;44.570;18.610;2024-01-30T11:38:39;8.00;76.90
78184;DHT22;67442;44.570;18.610;2024-01-30T11:41:10;8.10;76.00
78184;DHT22;67442;44.570;18.610;2024-01-30T11:43:42;8.10;76.00
78184;DHT22;67442;44.570;18.610;2024-01-30T11:46:09;8.00;79.60
78184;DHT22;67442;44.570;18.610;2024-01-30T11:48:37;8.10;77.70
78184;DHT22;67442;44.570;18.610;2024-01-30T11:51:13;8.00;78.30
78184;DHT22;67442;44.570;18.610;2024-01-30T11:53:41;7.90;82.80
78184;DHT22;67442;44.570;18.610;2024-01-30T11:56:13;7.80;80.00
78184;DHT22;67442;44.570;18.610;2024-01-30T11:58:44;7.70;79.20
78184;DHT22;67442;44.570;18.610;2024-01-30T12:01:11;7.70;80.90
78184;DHT22;67442;44.570;18.610;2024-01-30T12:03:39;7.90;79.30
78184;DHT22;67442;44.570;18.610;2024-01-30T12:06:07;8.00;81.40
78184;DHT22;67442;44.570;18.610;2024-01-30T12:08:35;7.80;68.30
78184;DHT22;67442;44.570;18.610;2024-01-30T12:11:02;8.00;65.10
78184;DHT22;67442;44.570;18.610;2024-01-30T12:13:31;7.90;64.40
78184;DHT22;67442;44.570;18.610;2024-01-30T12:16:03;7.80;64.80
78184;DHT22;67442;44.570;18.610;2024-01-30T12:18:30;8.00;68.50
78184;DHT22;67442;44.570;18.610;2024-01-30T12:21:01;8.40;67.60
78184;DHT22;67442;44.570;18.610;2024-01-30T12:23:28;8.60;67.80
78184;DHT22;67442;44.570;18.610;2024-01-30T12:25:57;8.60;61.60
78184;DHT22;67442;44.570;18.610;2024-01-30T12:28:24;8.50;60.40
78184;DHT22;67442;44.570;18.610;2024-01-30T12:31:01;8.40;58.80
78184;DHT22;67442;44.570;18.610;2024-01-30T12:33:30;8.30;61.30
78184;DHT22;67442;44.570;18.610;2024-01-30T12:35:57;8.50;58.80
78184;DHT22;67442;44.570;18.610;2024-01-30T12:38:32;8.60;59.90
78184;DHT22;67442;44.570;18.610;2024-01-30T12:40:59;8.60;61.40
78184;DHT22;67442;44.570;18.610;2024-01-30T12:43:26;8.80;59.60
78184;DHT22;67442;44.570;18.610;2024-01-30T12:45:57;9.00;57.10
78184;DHT22;67442;44.570;18.610;2024-01-30T12:48:26;9.00;59.40
78184;DHT22;67442;44.570;18.610;2024-01-30T12:50:56;9.20;59.00
78184;DHT22;67442;44.570;18.610;2024-01-30T12:53:24;8.90;55.80
78184;DHT22;67442;44.570;18.610;2024-01-30T12:55:52;8.80;54.30
78184;DHT22;67442;44.570;18.610;2024-01-30T12:58:23;8.60;55.90
78184;DHT22;67442;44.570;18.610;2024-01-30T13:00:54;8.40;57.40
78184;DHT22;67442;44.570;18.610;2024-01-30T13:03:24;8.50;56.90
78184;DHT22;67442;44.570;18.610;2024-01-30T13:05:51;8.70;59.00
78184;DHT22;67442;44.570;18.610;2024-01-30T13:08:23;8.70;57.10
78184;DHT22;67442;44.570;18.610;2024-01-30T13:10:54;8.70;56.20
78184;DHT22;67442;44.570;18.610;2024-01-30T13:13:21;8.50;56.30
78184;DHT22;67442;44.570;18.610;2024-01-30T13:15:48;8.80;56.90
78184;DHT22;67442;44.570;18.610;2024-01-30T13:18:16;8.90;56.60
78184;DHT22;67442;44.570;18.610;2024-01-30T13:20:43;8.90;55.90
78184;DHT22;67442;44.570;18.610;2024-01-30T13:23:11;9.00;55.90
78184;DHT22;67442;44.570;18.610;2024-01-30T13:25:38;9.00;55.40
78184;DHT22;67442;44.570;18.610;2024-01-30T13:28:10;9.00;56.40
78184;DHT22;67442;44.570;18.610;2024-01-30T13:30:37;9.00;58.40
78184;DHT22;67442;44.570;18.610;2024-01-30T13:33:06;9.00;57.60
78184;DHT22;67442;44.570;18.610;2024-01-30T13:35:33;9.00;57.70
78184;DHT22;67442;44.570;18.610;2024-01-30T13:38:04;9.10;54.20
78184;DHT22;67442;44.570;18.610;2024-01-30T13:40:32;9.10;54.30
78184;DHT22;67442;44.570;18.610;2024-01-30T13:43:00;9.10;57.30
78184;DHT22;67442;44.570;18.610;2024-01-30T13:45:30;9.20;56.80
78184;DHT22;67442;44.570;18.610;2024-01-30T13:47:58;9.00;60.20
78184;DHT22;67442;44.570;18.610;2024-01-30T13:50:30;9.10;56.00
78184;DHT22;67442;44.570;18.610;2024-01-30T13:53:01;9.10;55.00
78184;DHT22;67442;44.570;18.610;2024-01-30T13:55:28;9.20;54.80
78184;DHT22;67442;44.570;18.610;2024-01-30T13:57:55;9.20;55.20
78184;DHT22;67442;44.570;18.610;2024-01-30T14:00:26;9.10;56.20
78184;DHT22;67442;44.570;18.610;2024-01-30T14:02:58;9.00;57.40
78184;DHT22;67442;44.570;18.610;2024-01-30T14:05:29;8.90;57.40
78184;DHT22;67442;44.570;18.610;2024-01-30T14:07:58;8.90;58.00
78184;DHT22;67442;44.570;18.610;2024-01-30T14:10:26;8.80;58.20
78184;DHT22;67442;44.570;18.610;2024-01-30T14:12:53;8.80;56.10
78184;DHT22;67442;44.570;18.610;2024-01-30T14:15:20;8.70;56.90
78184;DHT22;67442;44.570;18.610;2024-01-30T14:17:53;8.60;55.90
78184;DHT22;67442;44.570;18.610;2024-01-30T14:20:20;8.50;56.70
78184;DHT22;67442;44.570;18.610;2024-01-30T14:22:47;8.50;58.70
78184;DHT22;67442;44.570;18.610;2024-01-30T14:25:15;8.70;58.30
78184;DHT22;67442;44.570;18.610;2024-01-30T14:27:43;8.80;56.50
78184;DHT22;67442;44.570;18.610;2024-01-30T14:30:14;8.70;56.90
78184;DHT22;67442;44.570;18.610;2024-01-30T14:32:42;8.60;56.60
78184;DHT22;67442;44.570;18.610;2024-01-30T14:35:14;8.30;55.70
78184;DHT22;67442;44.570;18.610;2024-01-30T14:37:41;8.20;57.30
78184;DHT22;67442;44.570;18.610;2024-01-30T14:40:13;8.10;57.30
78184;DHT22;67442;44.570;18.610;2024-01-30T14:42:44;8.10;58.30
78184;DHT22;67442;44.570;18.610;2024-01-30T14:45:11;8.00;58.50
78184;DHT22;67442;44.570;18.610;2024-01-30T14:47:39;7.90;58.30
78184;DHT22;67442;44.570;18.610;2024-01-30T14:50:07;8.00;59.00
78184;DHT22;67442;44.570;18.610;2024-01-30T14:52:34;7.90;61.30
78184;DHT22;67442;44.570;18.610;2024-01-30T15:05:20;7.40;62.60
78184;DHT22;67442;44.570;18.610;2024-01-30T15:07:51;7.20;64.80
78184;DHT22;67442;44.570;18.610;2024-01-30T15:10:19;6.90;70.60
78184;DHT22;67442;44.570;18.610;2024-01-30T15:12:46;6.90;70.60
78184;DHT22;67442;44.570;18.610;2024-01-30T15:15:14;6.80;70.10
78184;DHT22;67442;44.570;18.610;2024-01-30T15:17:42;6.60;75.90
78184;DHT22;67442;44.570;18.610;2024-01-30T15:20:13;5.90;78.90
78184;DHT22;67442;44.570;18.610;2024-01-30T15:22:42;5.80;83.40
78184;DHT22;67442;44.570;18.610;2024-01-30T15:25:11;5.60;86.80
78184;DHT22;67442;44.570;18.610;2024-01-30T15:27:38;5.60;86.80
78184;DHT22;67442;44.570;18.610;2024-01-30T15:30:08;5.60;88.40
78184;DHT22;67442;44.570;18.610;2024-01-30T15:32:38;5.30;91.10
78184;DHT22;67442;44.570;18.610;2024-01-30T15:35:07;5.10;92.30
78184;DHT22;67442;44.570;18.610;2024-01-30T15:37:36;5.00;92.30
78184;DHT22;67442;44.570;18.610;2024-01-30T15:40:03;4.70;93.30
78184;DHT22;67442;44.570;18.610;2024-01-30T15:42:33;4.50;94.00
78184;DHT22;67442;44.570;18.610;2024-01-30T15:45:00;4.30;95.20